createdAt,value
2022-10-30T00:01:24.066Z,16.00
2022-10-30T00:03:51.441Z,15.90
2022-10-30T00:08:45.164Z,15.90
2022-10-30T00:11:12.979Z,15.90
2022-10-30T00:13:40.178Z,15.80
2022-10-30T00:16:08.248Z,15.80
2022-10-30T00:18:35.976Z,15.80
2022-10-30T00:21:13.513Z,15.70
2022-10-30T00:23:45.524Z,15.70
2022-10-30T00:26:12.393Z,15.70
2022-10-30T00:28:40.337Z,15.70
2022-10-30T00:31:07.897Z,15.70
2022-10-30T00:33:34.840Z,15.70
2022-10-30T00:36:01.703Z,15.60
2022-10-30T00:38:28.647Z,15.70
2022-10-30T00:40:55.716Z,15.60
2022-10-30T00:43:29.702Z,15.60
2022-10-30T00:45:58.269Z,15.60
2022-10-30T00:48:26.234Z,15.50
2022-10-30T00:50:53.591Z,15.50
2022-10-30T00:53:21.264Z,15.50
2022-10-30T00:55:50.543Z,15.60
2022-10-30T00:58:19.187Z,15.60
2022-10-30T01:00:47.958Z,15.60
2022-10-30T01:03:15.379Z,15.50
2022-10-30T01:05:43.074Z,15.50
2022-10-30T01:08:10.000Z,15.50
2022-10-30T01:10:37.340Z,15.50
2022-10-30T01:13:04.485Z,15.50
2022-10-30T01:15:35.541Z,15.40
2022-10-30T01:18:41.074Z,15.40
2022-10-30T01:21:07.934Z,15.30
2022-10-30T01:23:43.800Z,15.30
2022-10-30T01:26:17.880Z,15.20
2022-10-30T01:29:03.242Z,15.20
2022-10-30T01:31:45.570Z,15.20
2022-10-30T01:34:12.415Z,15.10
2022-10-30T01:36:45.301Z,15.10
2022-10-30T01:39:44.287Z,15.10
2022-10-30T01:42:31.160Z,15.10
2022-10-30T01:44:58.056Z,15.00
2022-10-30T01:47:27.675Z,15.00
2022-10-30T02:03:32.205Z,15.00
2022-10-30T02:05:59.411Z,14.90
2022-10-30T02:08:27.483Z,14.90
2022-10-30T02:10:54.524Z,14.90
2022-10-30T02:13:21.530Z,14.80
2022-10-30T02:15:49.027Z,14.90
2022-10-30T02:18:16.385Z,14.90
2022-10-30T02:20:43.226Z,14.90
2022-10-30T02:23:16.295Z,14.90
2022-10-30T02:25:43.088Z,14.80
2022-10-30T02:28:09.978Z,14.90
2022-10-30T02:30:37.067Z,14.80
2022-10-30T02:33:04.308Z,14.80
2022-10-30T02:35:31.655Z,14.90
2022-10-30T02:37:58.838Z,14.80
2022-10-30T02:40:25.956Z,14.80
2022-10-30T02:42:53.543Z,14.80
2022-10-30T02:45:20.898Z,14.80
2022-10-30T02:47:47.816Z,14.80
2022-10-30T02:50:14.867Z,14.80
2022-10-30T02:52:41.826Z,14.70
2022-10-30T02:55:08.972Z,14.70
2022-10-30T02:57:35.883Z,14.70
2022-10-30T03:00:03.559Z,14.80
2022-10-30T03:02:30.517Z,14.70
2022-10-30T03:04:57.426Z,14.70
2022-10-30T03:07:24.282Z,14.60
2022-10-30T03:09:52.304Z,14.50
2022-10-30T03:12:19.169Z,14.40
2022-10-30T03:14:46.256Z,14.40
2022-10-30T03:17:13.124Z,14.40
2022-10-30T03:19:41.087Z,14.40
2022-10-30T03:22:07.993Z,14.50
2022-10-30T03:24:34.947Z,14.50
2022-10-30T03:27:01.817Z,14.60
2022-10-30T03:29:28.744Z,14.60
2022-10-30T03:31:55.548Z,14.50
2022-10-30T03:34:22.392Z,14.50
2022-10-30T03:36:49.283Z,14.50
2022-10-30T03:39:16.104Z,14.50
2022-10-30T03:41:43.672Z,14.50
2022-10-30T03:44:10.500Z,14.50
2022-10-30T03:46:38.084Z,14.50
2022-10-30T03:49:05.005Z,14.40
2022-10-30T03:51:32.011Z,14.40
2022-10-30T03:53:59.235Z,14.40
2022-10-30T03:56:26.050Z,14.40
2022-10-30T03:58:52.885Z,14.40
2022-10-30T04:01:19.998Z,14.40
2022-10-30T04:03:46.876Z,14.30
2022-10-30T04:06:13.741Z,14.30
2022-10-30T04:08:40.558Z,14.30
2022-10-30T04:11:09.817Z,14.30
2022-10-30T04:13:36.819Z,14.30
2022-10-30T04:16:04.036Z,14.20
2022-10-30T04:18:30.909Z,14.20
2022-10-30T04:20:59.460Z,14.20
2022-10-30T04:23:26.271Z,14.30
2022-10-30T04:25:53.073Z,14.20
2022-10-30T04:28:21.438Z,14.20
2022-10-30T04:30:48.293Z,14.30
2022-10-30T04:33:15.130Z,14.20
2022-10-30T04:35:42.192Z,14.10
2022-10-30T04:38:13.141Z,14.00
2022-10-30T04:40:41.080Z,14.10
2022-10-30T04:43:08.426Z,14.10
2022-10-30T04:45:36.190Z,14.00
2022-10-30T04:48:04.190Z,14.10
2022-10-30T04:50:31.414Z,14.10
2022-10-30T04:53:02.761Z,14.10
2022-10-30T04:55:30.150Z,14.10
2022-10-30T04:58:00.815Z,14.20
2022-10-30T05:00:27.926Z,14.20
2022-10-30T05:02:55.160Z,14.20
2022-10-30T05:05:22.104Z,14.20
2022-10-30T05:07:49.037Z,14.20
2022-10-30T05:10:17.192Z,14.20
2022-10-30T05:12:44.567Z,14.20
2022-10-30T05:15:11.952Z,14.20
2022-10-30T05:17:39.376Z,14.20
2022-10-30T05:20:06.798Z,14.20
2022-10-30T05:22:33.651Z,14.20
2022-10-30T05:25:00.476Z,14.20
2022-10-30T05:27:27.269Z,14.20
2022-10-30T05:29:54.193Z,14.20
2022-10-30T05:32:21.242Z,14.10
2022-10-30T05:34:48.046Z,14.10
2022-10-30T05:37:14.927Z,14.00
2022-10-30T05:39:41.815Z,13.90
2022-10-30T05:42:13.435Z,13.90
2022-10-30T05:44:59.692Z,13.90
2022-10-30T05:47:27.083Z,13.90
2022-10-30T05:49:54.001Z,13.90
2022-10-30T05:52:20.923Z,13.80
2022-10-30T05:54:47.898Z,13.80
2022-10-30T05:57:14.832Z,13.80
2022-10-30T05:59:41.852Z,13.70
2022-10-30T06:02:09.079Z,13.70
2022-10-30T06:04:36.023Z,13.60
2022-10-30T06:07:03.376Z,13.70
2022-10-30T06:09:30.298Z,13.60
2022-10-30T06:11:58.563Z,13.60
2022-10-30T06:14:25.420Z,13.60
2022-10-30T06:16:52.228Z,13.60
2022-10-30T06:19:19.288Z,13.60
2022-10-30T06:21:46.734Z,13.60
2022-10-30T06:24:13.911Z,13.50
2022-10-30T06:26:40.958Z,13.50
2022-10-30T06:29:07.799Z,13.50
2022-10-30T06:31:34.694Z,13.40
2022-10-30T06:34:01.708Z,13.40
2022-10-30T06:36:28.578Z,13.40
2022-10-30T06:38:55.469Z,13.50
2022-10-30T06:41:29.075Z,13.60
2022-10-30T06:43:57.356Z,13.60
2022-10-30T06:46:27.092Z,13.60
2022-10-30T06:48:57.606Z,13.60
2022-10-30T06:51:24.736Z,13.60
2022-10-30T06:53:51.576Z,13.60
2022-10-30T06:56:18.505Z,13.70
2022-10-30T06:58:45.604Z,13.60
2022-10-30T07:01:12.547Z,13.70
2022-10-30T07:03:39.496Z,13.70
2022-10-30T07:06:06.474Z,13.70
2022-10-30T07:08:33.378Z,13.70
2022-10-30T07:11:00.187Z,13.60
2022-10-30T07:13:27.107Z,13.70
2022-10-30T07:15:53.967Z,13.60
2022-10-30T07:18:21.082Z,13.70
2022-10-30T07:20:47.946Z,13.70
2022-10-30T07:23:14.810Z,13.80
2022-10-30T07:25:41.651Z,13.80
2022-10-30T07:28:08.548Z,13.90
2022-10-30T07:30:35.686Z,13.90
2022-10-30T07:33:03.941Z,14.00
2022-10-30T07:35:31.453Z,14.00
2022-10-30T07:38:02.666Z,14.10
2022-10-30T07:40:29.568Z,14.20
2022-10-30T07:56:19.433Z,14.50
2022-10-30T07:58:46.376Z,14.60
2022-10-30T08:01:13.379Z,14.70
2022-10-30T08:03:40.335Z,14.80
2022-10-30T08:06:07.218Z,14.80
2022-10-30T08:08:35.805Z,14.90
2022-10-30T08:11:04.788Z,15.00
2022-10-30T08:13:31.736Z,15.00
2022-10-30T08:15:58.799Z,15.10
2022-10-30T08:18:27.050Z,15.20
2022-10-30T08:20:53.874Z,15.30
2022-10-30T08:23:22.171Z,15.40
2022-10-30T08:25:49.063Z,15.50
2022-10-30T08:28:16.031Z,15.60
2022-10-30T08:30:43.004Z,15.70
2022-10-30T08:33:15.953Z,15.80
2022-10-30T08:35:50.536Z,16.00
2022-10-30T08:38:17.660Z,16.00
2022-10-30T08:40:44.820Z,16.10
2022-10-30T08:43:12.037Z,16.20
2022-10-30T08:45:38.905Z,16.20
2022-10-30T08:48:06.690Z,16.30
2022-10-30T08:50:34.074Z,16.30
2022-10-30T08:53:03.948Z,16.40
2022-10-30T08:55:31.287Z,16.50
2022-10-30T08:57:58.319Z,16.50
2022-10-30T09:00:25.638Z,16.60
2022-10-30T09:02:52.918Z,16.60
2022-10-30T09:05:20.136Z,16.70
2022-10-30T09:07:47.411Z,16.80
2022-10-30T09:10:14.696Z,16.80
2022-10-30T09:12:41.540Z,16.80
2022-10-30T09:15:08.692Z,16.80
2022-10-30T09:17:35.638Z,16.90
2022-10-30T09:20:02.473Z,17.00
2022-10-30T09:22:29.387Z,17.10
2022-10-30T09:24:56.326Z,17.10
2022-10-30T09:27:23.165Z,17.20
2022-10-30T09:29:49.979Z,17.30
2022-10-30T09:32:16.942Z,17.40
2022-10-30T09:34:44.068Z,17.50
2022-10-30T09:37:10.934Z,17.50
2022-10-30T09:39:37.839Z,17.50
2022-10-30T09:42:17.930Z,17.50
2022-10-30T09:44:48.770Z,17.60
2022-10-30T09:47:32.555Z,17.70
2022-10-30T09:50:11.579Z,17.80
2022-10-30T09:52:57.256Z,17.90
2022-10-30T09:55:29.673Z,18.00
2022-10-30T09:57:56.515Z,18.00
2022-10-30T10:00:24.443Z,18.10
2022-10-30T10:03:09.407Z,18.20
2022-10-30T10:05:56.596Z,18.30
2022-10-30T10:08:36.990Z,18.40
2022-10-30T10:11:08.707Z,18.50
2022-10-30T10:13:52.004Z,18.60
2022-10-30T10:16:23.142Z,18.70
2022-10-30T10:19:08.287Z,18.80
2022-10-30T10:21:37.673Z,18.90
2022-10-30T10:24:05.041Z,19.00
2022-10-30T10:26:31.955Z,19.00
2022-10-30T10:29:01.796Z,19.10
2022-10-30T10:31:58.243Z,19.20
2022-10-30T10:34:27.686Z,19.30
2022-10-30T10:37:00.722Z,19.50
2022-10-30T10:39:37.467Z,19.70
2022-10-30T10:42:19.542Z,19.80
2022-10-30T10:45:07.263Z,20.00
2022-10-30T10:47:48.360Z,20.10
2022-10-30T10:50:21.119Z,20.30
2022-10-30T10:52:51.340Z,20.40
2022-10-30T10:55:19.810Z,20.50
2022-10-30T10:57:47.249Z,20.60
2022-10-30T11:00:18.326Z,20.70
2022-10-30T11:02:51.100Z,20.80
2022-10-30T11:05:39.381Z,20.90
2022-10-30T11:08:19.337Z,21.00
2022-10-30T11:10:48.789Z,21.10
2022-10-30T11:13:15.671Z,21.10
2022-10-30T11:15:42.553Z,21.10
2022-10-30T11:18:10.203Z,21.10
2022-10-30T11:20:37.404Z,21.20
2022-10-30T11:23:04.443Z,21.10
2022-10-30T11:25:36.474Z,21.10
2022-10-30T11:28:04.956Z,21.10
2022-10-30T11:30:32.294Z,21.10
2022-10-30T11:33:00.249Z,21.00
2022-10-30T11:35:27.132Z,21.00
2022-10-30T11:38:23.040Z,21.00
2022-10-30T11:40:52.348Z,21.00
2022-10-30T11:43:22.251Z,21.00
2022-10-30T11:45:49.580Z,21.00
2022-10-30T11:48:27.184Z,21.00
2022-10-30T11:50:56.902Z,21.00
2022-10-30T11:53:30.622Z,21.00
2022-10-30T11:55:58.563Z,21.10
2022-10-30T11:58:28.570Z,21.10
2022-10-30T12:01:14.775Z,21.10
2022-10-30T12:03:42.001Z,21.10
2022-10-30T12:06:11.146Z,21.10
2022-10-30T12:08:38.397Z,21.10
2022-10-30T12:11:05.964Z,21.10
2022-10-30T12:13:42.323Z,21.20
2022-10-30T12:16:12.985Z,21.20
2022-10-30T12:18:40.035Z,21.30
2022-10-30T12:21:07.094Z,21.40
2022-10-30T12:23:34.669Z,21.50
2022-10-30T12:26:07.715Z,21.50
2022-10-30T12:28:35.348Z,21.50
2022-10-30T12:31:05.551Z,21.50
2022-10-30T12:33:39.710Z,21.50
2022-10-30T12:36:08.440Z,21.50
2022-10-30T12:38:40.309Z,21.50
2022-10-30T12:41:27.382Z,21.50
2022-10-30T12:44:09.614Z,21.60
2022-10-30T12:46:42.641Z,21.60
2022-10-30T12:49:32.704Z,21.60
2022-10-30T12:52:02.730Z,21.60
2022-10-30T12:54:41.473Z,21.60
2022-10-30T12:57:13.245Z,21.60
2022-10-30T12:59:45.740Z,21.60
2022-10-30T13:02:21.785Z,21.60
2022-10-30T13:04:50.542Z,21.60
2022-10-30T13:07:25.180Z,21.60
2022-10-30T13:10:03.800Z,21.60
2022-10-30T13:12:37.238Z,21.50
2022-10-30T13:15:06.892Z,21.50
2022-10-30T13:17:34.162Z,21.60
2022-10-30T13:20:01.249Z,21.60
2022-10-30T13:22:28.391Z,21.70
2022-10-30T13:25:00.778Z,21.80
2022-10-30T13:27:53.210Z,21.90
2022-10-30T13:30:25.886Z,22.10
2022-10-30T13:33:03.878Z,22.30
2022-10-30T13:35:38.187Z,22.40
2022-10-30T13:38:05.286Z,22.60
2022-10-30T13:40:35.525Z,22.70
2022-10-30T13:43:14.146Z,22.80
2022-10-30T13:45:50.585Z,22.90
2022-10-30T13:48:28.277Z,23.00
2022-10-30T13:50:58.227Z,23.00
2022-10-30T13:53:27.213Z,23.00
2022-10-30T13:55:56.034Z,23.00
2022-10-30T13:58:22.913Z,23.20
2022-10-30T14:00:59.247Z,23.30
2022-10-30T14:03:35.117Z,23.40
2022-10-30T14:06:11.030Z,23.50
2022-10-30T14:08:50.805Z,23.70
2022-10-30T14:11:17.911Z,23.70
2022-10-30T14:13:46.452Z,23.80
2022-10-30T14:16:42.605Z,23.90
2022-10-30T14:19:16.597Z,23.90
2022-10-30T14:21:58.817Z,23.90
2022-10-30T14:24:30.389Z,23.90
2022-10-30T14:27:02.964Z,24.00
2022-10-30T14:29:29.822Z,24.00
2022-10-30T14:31:56.737Z,24.00
2022-10-30T14:34:42.831Z,23.90
2022-10-30T14:37:10.211Z,23.90
2022-10-30T14:39:46.549Z,23.90
2022-10-30T14:42:21.037Z,23.80
2022-10-30T14:44:47.966Z,23.80
2022-10-30T14:47:33.240Z,23.70
2022-10-30T14:50:23.348Z,23.70
2022-10-30T14:52:50.236Z,23.70
2022-10-30T14:55:32.173Z,23.60
2022-10-30T14:58:02.256Z,23.50
2022-10-30T15:00:30.818Z,23.50
2022-10-30T15:02:57.697Z,23.40
2022-10-30T15:05:37.253Z,23.30
2022-10-30T15:08:27.979Z,23.30
2022-10-30T15:11:17.732Z,23.20
2022-10-30T15:13:56.517Z,23.00
2022-10-30T15:16:24.234Z,22.90
2022-10-30T15:18:56.069Z,22.80
2022-10-30T15:21:25.559Z,22.70
2022-10-30T15:23:54.357Z,22.60
2022-10-30T15:26:23.014Z,22.50
2022-10-30T15:28:50.762Z,22.30
2022-10-30T15:31:17.938Z,22.20
2022-10-30T15:33:45.091Z,22.10
2022-10-30T15:36:32.313Z,21.90
2022-10-30T15:39:18.630Z,21.80
2022-10-30T15:41:59.427Z,21.70
2022-10-30T15:44:27.839Z,21.60
2022-10-30T15:46:55.860Z,21.50
2022-10-30T15:49:25.705Z,21.40
2022-10-30T15:51:52.616Z,21.40
2022-10-30T15:54:21.475Z,21.30
2022-10-30T15:57:23.995Z,21.20
2022-10-30T15:59:37.107Z,21.10
2022-10-30T16:02:19.660Z,21.00
2022-10-30T16:04:47.276Z,21.00
2022-10-30T16:07:21.602Z,20.90
2022-10-30T16:09:52.209Z,20.80
2022-10-30T16:12:19.304Z,20.70
2022-10-30T16:14:46.246Z,20.60
2022-10-30T16:17:13.227Z,20.50
2022-10-30T16:19:41.590Z,20.20
2022-10-30T16:22:11.978Z,20.10
2022-10-30T16:24:39.701Z,20.00
2022-10-30T16:27:08.219Z,19.90
2022-10-30T16:29:36.005Z,19.80
2022-10-30T16:32:03.370Z,19.70
2022-10-30T16:34:36.776Z,19.60
2022-10-30T16:37:04.863Z,19.50
2022-10-30T16:39:32.924Z,19.40
2022-10-30T16:42:00.518Z,19.40
2022-10-30T16:44:27.509Z,19.30
2022-10-30T16:50:19.291Z,19.20
2022-10-30T16:53:02.201Z,19.10
2022-10-30T16:55:38.598Z,19.10
2022-10-30T16:58:05.772Z,19.00
2022-10-30T17:00:36.376Z,18.90
2022-10-30T17:35:29.798Z,18.20
2022-10-30T17:37:59.792Z,18.20
2022-10-30T17:40:29.640Z,18.10
2022-10-30T17:42:56.505Z,18.10
2022-10-30T17:45:23.323Z,18.00
2022-10-30T17:47:50.201Z,18.00
2022-10-30T17:50:17.113Z,17.90
2022-10-30T17:52:44.029Z,17.90
2022-10-30T17:55:29.591Z,17.70
2022-10-30T17:57:56.444Z,17.60
2022-10-30T18:00:23.377Z,17.50
2022-10-30T18:02:50.364Z,17.50
2022-10-30T18:05:18.988Z,17.40
2022-10-30T18:07:45.915Z,17.40
2022-10-30T18:10:12.874Z,17.40
2022-10-30T18:12:40.090Z,17.40
2022-10-30T18:15:25.380Z,17.40
2022-10-30T18:17:52.531Z,17.30
2022-10-30T18:20:19.555Z,17.30
2022-10-30T18:22:46.444Z,17.20
2022-10-30T18:25:18.546Z,17.20
2022-10-30T18:27:45.391Z,17.10
2022-10-30T18:30:13.571Z,17.10
2022-10-30T18:32:40.939Z,16.90
2022-10-30T18:35:14.902Z,16.90
2022-10-30T18:37:42.068Z,16.90
2022-10-30T18:40:09.248Z,16.90
2022-10-30T18:42:36.098Z,16.90
2022-10-30T18:45:02.989Z,16.90
2022-10-30T18:47:29.819Z,16.90
2022-10-30T18:49:57.118Z,17.00
2022-10-30T18:52:23.938Z,17.00
2022-10-30T18:54:50.816Z,16.90
2022-10-30T18:57:17.685Z,16.90
2022-10-30T18:59:44.509Z,16.90
2022-10-30T19:02:18.775Z,16.90
2022-10-30T19:04:45.702Z,16.90
2022-10-30T19:07:12.596Z,16.90
2022-10-30T19:09:40.548Z,16.90
2022-10-30T19:12:09.053Z,16.90
2022-10-30T19:14:35.890Z,16.90
2022-10-30T19:17:02.833Z,16.80
2022-10-30T19:19:29.706Z,16.80
2022-10-30T19:21:56.619Z,16.80
2022-10-30T19:24:23.587Z,16.70
2022-10-30T19:26:50.441Z,16.70
2022-10-30T19:29:17.326Z,16.60
2022-10-30T19:31:44.287Z,16.40
2022-10-30T19:34:11.166Z,16.40
2022-10-30T19:36:38.127Z,16.30
2022-10-30T19:39:10.322Z,16.30
2022-10-30T19:41:37.622Z,16.30
2022-10-30T19:44:04.730Z,16.30
2022-10-30T19:46:31.584Z,16.20
2022-10-30T19:48:59.527Z,16.10
2022-10-30T19:51:27.537Z,16.10
2022-10-30T19:53:54.581Z,16.10
2022-10-30T19:56:21.842Z,16.10
2022-10-30T19:58:49.072Z,16.00
2022-10-30T20:01:16.344Z,16.00
2022-10-30T20:03:43.397Z,16.00
2022-10-30T20:06:13.613Z,16.00
2022-10-30T20:08:40.794Z,16.00
2022-10-30T20:11:07.761Z,16.00
2022-10-30T20:13:34.763Z,16.00
2022-10-30T20:16:05.247Z,15.90
2022-10-30T20:18:33.443Z,15.90
2022-10-30T20:21:01.439Z,15.90
2022-10-30T20:23:28.335Z,15.90
2022-10-30T20:25:58.009Z,15.80
2022-10-30T20:28:27.235Z,15.80
2022-10-30T20:30:54.593Z,15.80
2022-10-30T20:33:21.989Z,15.80
2022-10-30T20:35:49.711Z,15.80
2022-10-30T20:38:21.120Z,15.70
2022-10-30T20:40:48.618Z,15.70
2022-10-30T20:43:17.104Z,15.70
2022-10-30T20:45:43.963Z,15.70
2022-10-30T20:48:10.902Z,15.70
2022-10-30T20:50:37.927Z,15.70
2022-10-30T20:53:04.933Z,15.70
2022-10-30T20:55:33.322Z,15.60
2022-10-30T20:58:00.587Z,15.50
2022-10-30T21:00:27.858Z,15.50
2022-10-30T21:02:54.710Z,15.50
2022-10-30T21:05:42.832Z,15.50
2022-10-30T21:08:08.552Z,15.50
2022-10-30T21:10:38.756Z,15.50
2022-10-30T21:13:08.788Z,15.50
2022-10-30T21:15:40.467Z,15.50
2022-10-30T21:18:07.494Z,15.40
2022-10-30T21:20:34.368Z,15.40
2022-10-30T21:23:01.209Z,15.50
2022-10-30T21:25:28.846Z,15.40
2022-10-30T21:27:58.959Z,15.50
2022-10-30T21:30:25.826Z,15.50
2022-10-30T21:32:52.665Z,15.40
2022-10-30T21:35:19.646Z,15.40
2022-10-30T21:37:46.641Z,15.40
2022-10-30T21:40:13.886Z,15.40
2022-10-30T21:42:40.826Z,15.40
2022-10-30T21:45:08.081Z,15.40
2022-10-30T21:47:34.916Z,15.40
2022-10-30T21:50:06.044Z,15.40
2022-10-30T21:52:34.889Z,15.40
2022-10-30T21:55:01.707Z,15.40
2022-10-30T21:57:29.071Z,15.30
2022-10-30T21:59:58.755Z,15.30
2022-10-30T22:02:28.549Z,15.30
2022-10-30T22:04:55.674Z,15.30
2022-10-30T22:07:22.632Z,15.30
2022-10-30T22:09:49.462Z,15.20
2022-10-30T22:12:16.353Z,15.20
2022-10-30T22:14:43.185Z,15.10
2022-10-30T22:17:10.031Z,15.10
2022-10-30T22:19:36.832Z,15.10
2022-10-30T22:22:03.667Z,15.10
2022-10-30T22:24:30.514Z,15.10
2022-10-30T22:26:57.333Z,15.10
2022-10-30T22:29:24.244Z,15.00
2022-10-30T22:31:51.139Z,15.00
2022-10-30T22:34:18.027Z,15.00
2022-10-30T22:36:44.868Z,15.00
2022-10-30T22:39:13.280Z,15.00
2022-10-30T22:41:40.534Z,15.00
2022-10-30T22:44:08.786Z,15.00
2022-10-30T22:46:36.447Z,14.90
2022-10-30T22:49:03.572Z,14.90
2022-10-30T22:51:31.963Z,15.00
2022-10-30T22:54:00.095Z,14.90
2022-10-30T22:56:28.787Z,14.90
2022-10-30T22:58:55.830Z,14.90
2022-10-30T23:01:23.674Z,14.90
2022-10-30T23:03:52.317Z,14.90
2022-10-30T23:06:19.808Z,14.90
2022-10-30T23:08:46.982Z,14.80
2022-10-30T23:11:13.914Z,14.80
2022-10-30T23:13:40.903Z,14.80
2022-10-30T23:16:08.854Z,14.80
2022-10-30T23:18:35.794Z,14.80
2022-10-30T23:21:11.166Z,14.80
2022-10-30T23:23:38.531Z,14.70
2022-10-30T23:26:10.137Z,14.80
2022-10-30T23:28:37.091Z,14.70
2022-10-30T23:31:16.247Z,14.80
2022-10-30T23:33:43.138Z,14.70
2022-10-30T23:36:09.966Z,14.70
2022-10-30T23:38:36.805Z,14.60
2022-10-30T23:41:03.625Z,14.60
2022-10-30T23:43:30.481Z,14.60
2022-10-30T23:45:57.355Z,14.60
2022-10-30T23:48:24.222Z,14.60
2022-10-30T23:50:51.090Z,14.50
2022-10-30T23:53:18.066Z,14.50
2022-10-30T23:55:54.479Z,14.50
2022-10-30T23:58:21.595Z,14.50
